Terminal Aerodrome Forecast
Issued by NWS

Home | Current Version | Previous Version | Text Only | Print | Product List | Glossary Off
Versions: 1 2 3 4 5 6 7 8 9 10 11 12 13 14 15 16 17

671
FTUS43 KFGF 142320
TAFBJI
TAF
KBJI 142320Z 1500/1524 VRB06KT P6SM FEW200
     FM151400 21007KT P6SM FEW250=

USA.gov is the U.S. government's official web portal to all federal, state and local government web resources and services.